createdAt,value
2017-05-25T00:02:39.653Z,0
2017-05-25T00:07:35.269Z,0
2017-05-25T00:12:32.310Z,0
2017-05-25T00:17:27.949Z,0
2017-05-25T00:22:26.034Z,0
2017-05-25T00:27:21.175Z,0
2017-05-25T00:32:17.076Z,0
2017-05-25T00:37:12.913Z,0
2017-05-25T00:42:09.019Z,0
2017-05-25T00:47:04.645Z,0
2017-05-25T00:52:00.295Z,0
2017-05-25T00:56:56.242Z,0
2017-05-25T01:01:52.243Z,0
2017-05-25T01:06:47.943Z,0
2017-05-25T01:11:44.102Z,0
2017-05-25T01:16:40.247Z,0
2017-05-25T01:21:36.052Z,0
2017-05-25T01:26:31.548Z,0
2017-05-25T01:31:27.641Z,0
2017-05-25T01:36:23.330Z,0
2017-05-25T01:41:19.375Z,0
2017-05-25T01:46:15.750Z,0
2017-05-25T01:51:11.164Z,0
2017-05-25T01:56:09.693Z,0
2017-05-25T02:01:04.335Z,0
2017-05-25T02:06:00.577Z,0
2017-05-25T02:10:56.182Z,0
2017-05-25T02:15:52.037Z,0
2017-05-25T02:20:47.659Z,0
2017-05-25T02:25:43.524Z,0
2017-05-25T02:30:39.179Z,0
2017-05-25T02:35:34.811Z,0
2017-05-25T02:40:30.868Z,0
2017-05-25T02:45:26.926Z,0
2017-05-25T02:50:22.671Z,0
2017-05-25T02:55:18.600Z,0
2017-05-25T03:00:14.485Z,0
2017-05-25T03:05:10.143Z,0
2017-05-25T03:10:05.707Z,0
2017-05-25T03:15:01.588Z,0
2017-05-25T03:19:57.255Z,0
2017-05-25T03:24:53.210Z,0
2017-05-25T03:29:49.061Z,0
2017-05-25T03:34:44.906Z,5
2017-05-25T03:39:41.562Z,5
2017-05-25T03:44:37.297Z,5
2017-05-25T03:49:33.235Z,10
2017-05-25T03:54:28.901Z,10
2017-05-25T03:59:25.005Z,10
2017-05-25T04:04:21.803Z,15
2017-05-25T04:09:17.255Z,15
2017-05-25T04:14:13.014Z,20
2017-05-25T04:19:09.820Z,20
2017-05-25T04:24:05.267Z,20
2017-05-25T04:29:01.278Z,25
2017-05-25T04:33:57.255Z,30
2017-05-25T04:38:53.418Z,30
2017-05-25T04:43:50.099Z,35
2017-05-25T04:48:45.618Z,35
2017-05-25T04:53:42.255Z,45
2017-05-25T04:58:37.597Z,50
2017-05-25T05:03:33.774Z,55
2017-05-25T05:08:29.366Z,55
2017-05-25T05:13:25.497Z,60
2017-05-25T05:18:21.175Z,60
2017-05-25T05:23:17.010Z,60
2017-05-25T05:28:12.872Z,65
2017-05-25T05:33:08.836Z,75
2017-05-25T05:38:04.033Z,85
2017-05-25T05:43:00.602Z,85
2017-05-25T05:47:56.380Z,90
2017-05-25T05:52:52.481Z,115
2017-05-25T05:57:48.461Z,140
2017-05-25T06:02:45.672Z,130
2017-05-25T06:07:41.808Z,130
2017-05-25T06:12:37.647Z,155
2017-05-25T06:17:33.492Z,180
2017-05-25T06:22:29.782Z,190
2017-05-25T06:27:25.912Z,265
2017-05-25T06:32:22.275Z,225
2017-05-25T06:37:18.562Z,175
2017-05-25T06:42:14.350Z,155
2017-05-25T06:47:09.691Z,155
2017-05-25T06:52:06.911Z,155
2017-05-25T06:57:02.352Z,165
2017-05-25T07:01:58.775Z,235
2017-05-25T07:06:54.816Z,225
2017-05-25T07:11:51.203Z,150
2017-05-25T07:16:46.841Z,165
2017-05-25T07:21:42.258Z,185
2017-05-25T07:26:38.152Z,275
2017-05-25T07:31:34.627Z,270
2017-05-25T07:36:30.596Z,250
2017-05-25T07:41:26.553Z,215
2017-05-25T07:46:23.209Z,765
2017-05-25T07:51:23.899Z,695
2017-05-25T07:56:21.121Z,545
2017-05-25T08:01:16.329Z,275
2017-05-25T08:06:12.066Z,230
2017-05-25T08:11:07.485Z,405
2017-05-25T08:16:07.758Z,345
2017-05-25T08:21:02.628Z,1255
2017-05-25T08:26:01.942Z,525
2017-05-25T08:31:00.583Z,1365
2017-05-25T08:35:58.844Z,1055
2017-05-25T08:40:53.606Z,420
2017-05-25T08:45:48.873Z,555
2017-05-25T08:50:46.502Z,1575
2017-05-25T09:00:49.225Z,1580
2017-05-25T09:05:48.106Z,1590
2017-05-25T09:10:45.200Z,1535
2017-05-25T09:15:40.949Z,1770
2017-05-25T09:20:37.764Z,1815
2017-05-25T09:25:33.600Z,1565
2017-05-25T09:30:30.179Z,1600
2017-05-25T09:35:28.368Z,1520
2017-05-25T09:40:25.013Z,1770
2017-05-25T09:45:21.319Z,1700
2017-05-25T09:50:18.993Z,1875
2017-05-25T09:55:14.716Z,1955
2017-05-25T10:00:11.599Z,1660
2017-05-25T10:05:07.414Z,1305
2017-05-25T10:10:04.733Z,1985
2017-05-25T10:15:00.729Z,1840
2017-05-25T10:19:57.092Z,1965
2017-05-25T10:24:53.543Z,1995
2017-05-25T10:29:50.238Z,2035
2017-05-25T10:34:46.132Z,1920
2017-05-25T10:39:41.268Z,1990
2017-05-25T10:44:37.532Z,1630
2017-05-25T10:49:34.188Z,2165
2017-05-25T10:54:31.502Z,2115
2017-05-25T10:59:27.023Z,2085
2017-05-25T11:04:23.886Z,2035
2017-05-25T11:09:21.198Z,1815
2017-05-25T11:14:17.938Z,2030
2017-05-25T11:19:14.696Z,2060
2017-05-25T11:24:11.206Z,1910
2017-05-25T11:29:07.366Z,2090
2017-05-25T11:34:03.945Z,2100
2017-05-25T11:39:00.460Z,1500
2017-05-25T11:43:56.611Z,1925
2017-05-25T11:48:54.404Z,2120
2017-05-25T11:53:51.470Z,2145
2017-05-25T11:58:47.598Z,1855
2017-05-25T12:03:43.830Z,2010
2017-05-25T12:08:39.697Z,2210
2017-05-25T12:13:35.432Z,2125
2017-05-25T12:18:31.483Z,2125
2017-05-25T12:23:28.701Z,2160
2017-05-25T12:28:24.536Z,2170
2017-05-25T12:33:20.685Z,2005
2017-05-25T12:38:16.574Z,2120
2017-05-25T12:43:15.751Z,2120
2017-05-25T12:48:11.578Z,2040
2017-05-25T12:53:07.292Z,2160
2017-05-25T12:58:03.848Z,2245
2017-05-25T13:02:59.471Z,1875
2017-05-25T13:07:54.151Z,2055
2017-05-25T13:12:51.020Z,370
2017-05-25T13:17:46.312Z,335
2017-05-25T13:22:40.997Z,1820
2017-05-25T13:27:36.059Z,300
2017-05-25T13:32:30.771Z,1770
2017-05-25T13:37:25.321Z,1700
2017-05-25T13:42:20.771Z,1875
2017-05-25T13:47:18.189Z,1025
2017-05-25T13:52:13.234Z,1820
2017-05-25T13:57:08.433Z,230
2017-05-25T14:02:03.934Z,1705
2017-05-25T14:06:59.665Z,210
2017-05-25T14:11:54.879Z,200
2017-05-25T14:16:50.336Z,220
2017-05-25T14:21:45.904Z,205
2017-05-25T14:26:41.499Z,245
2017-05-25T14:31:37.312Z,230
2017-05-25T14:36:33.463Z,260
2017-05-25T14:41:30.072Z,245
2017-05-25T14:46:25.631Z,205
2017-05-25T14:51:21.643Z,240
2017-05-25T14:56:17.877Z,220
2017-05-25T15:01:13.659Z,250
2017-05-25T15:06:10.133Z,255
2017-05-25T15:11:05.727Z,265
2017-05-25T15:16:01.999Z,235
2017-05-25T15:21:00.794Z,230
2017-05-25T15:25:56.362Z,230
2017-05-25T15:30:52.306Z,245
2017-05-25T15:35:48.374Z,195
2017-05-25T15:40:47.116Z,180
2017-05-25T15:45:42.239Z,190
2017-05-25T15:50:39.236Z,170
2017-05-25T15:55:34.954Z,170
2017-05-25T16:00:32.922Z,165
2017-05-25T16:05:28.321Z,200
2017-05-25T16:10:24.519Z,185
2017-05-25T16:15:20.642Z,190
2017-05-25T16:20:16.661Z,165
2017-05-25T16:25:13.487Z,140
2017-05-25T16:30:09.667Z,110
2017-05-25T16:35:05.129Z,125
2017-05-25T16:40:00.829Z,100
2017-05-25T16:44:57.295Z,90
2017-05-25T16:54:59.113Z,115
2017-05-25T17:04:56.708Z,150
2017-05-25T17:09:55.543Z,145
2017-05-25T17:14:51.678Z,115
2017-05-25T17:19:47.530Z,85
2017-05-25T17:24:43.636Z,85
2017-05-25T17:34:42.206Z,75
2017-05-25T17:39:40.145Z,75
2017-05-25T17:44:35.163Z,80
2017-05-25T17:49:34.587Z,75
2017-05-25T17:54:30.721Z,60
2017-05-25T17:59:27.843Z,60
2017-05-25T18:04:26.072Z,60
2017-05-25T18:09:22.152Z,65
2017-05-25T18:14:17.296Z,50
2017-05-25T18:19:19.273Z,45
2017-05-25T18:24:13.539Z,40
2017-05-25T18:29:09.848Z,40
2017-05-25T18:34:06.538Z,40
2017-05-25T18:39:02.039Z,35
2017-05-25T18:49:03.810Z,30
2017-05-25T18:54:02.787Z,25
2017-05-25T18:58:59.838Z,20
2017-05-25T19:04:01.525Z,15
2017-05-25T19:13:58.957Z,10
2017-05-25T19:18:55.849Z,10
2017-05-25T19:24:00.533Z,5
2017-05-25T19:28:54.739Z,5
2017-05-25T19:33:51.830Z,0
2017-05-25T19:38:48.895Z,0
2017-05-25T19:48:44.622Z,0
2017-05-25T19:53:40.420Z,0
2017-05-25T19:58:36.223Z,0
2017-05-25T20:03:32.083Z,0
2017-05-25T20:08:30.001Z,0
2017-05-25T20:13:32.455Z,0
2017-05-25T20:23:33.487Z,0
2017-05-25T20:28:32.210Z,0
2017-05-25T20:33:27.470Z,0
2017-05-25T20:38:24.844Z,0
2017-05-25T20:48:23.538Z,0
2017-05-25T20:53:19.619Z,0
2017-05-25T21:03:17.858Z,0
2017-05-25T21:13:14.102Z,0
2017-05-25T21:18:12.199Z,0
2017-05-25T21:28:16.329Z,0
2017-05-25T21:33:12.708Z,0
2017-05-25T21:43:10.835Z,0
2017-05-25T21:48:06.710Z,0
2017-05-25T21:53:04.064Z,0
2017-05-25T21:58:00.365Z,0
2017-05-25T22:07:56.379Z,0
2017-05-25T22:12:52.921Z,0
2017-05-25T22:17:49.180Z,0
2017-05-25T22:32:50.374Z,0
2017-05-25T22:37:46.268Z,0
2017-05-25T22:42:42.819Z,0
2017-05-25T22:47:42.243Z,0
2017-05-25T22:52:37.575Z,0
2017-05-25T22:57:35.178Z,0
2017-05-25T23:02:30.972Z,0
2017-05-25T23:07:28.073Z,0
2017-05-25T23:12:23.703Z,0
2017-05-25T23:17:19.308Z,0
2017-05-25T23:22:16.534Z,0
2017-05-25T23:27:12.434Z,0
2017-05-25T23:32:08.856Z,0
2017-05-25T23:37:06.505Z,0
2017-05-25T23:42:05.451Z,0
2017-05-25T23:47:01.187Z,0
2017-05-25T23:57:01.265Z,0
